This is the latest recevied weather packets stored in our database for station/object IW0REF-8. If no packets are shown the sender has not sent any weather packets the latest 10 day(s).
| Time | Temp. | Humidity | Pressure | Rain* | Wind** | Luminosity | Snow |
|---|---|---|---|---|---|---|---|
| 1777421510 | 13.33° C | 37% | 1020 hPa | - | - | - | - |
| 1777420610 | 13.33° C | 37% | 1020.1 hPa | - | - | - | - |
| 1777419710 | 13.33° C | 35% | 1019.7 hPa | - | - | - | - |
| 1777418810 | 13.89° C | 35% | 1019.7 hPa | - | - | - | - |
| 1777417909 | 13.89° C | 34% | 1019.6 hPa | - | - | - | - |
| 1777417009 | 14.44° C | 35% | 1019.8 hPa | - | - | - | - |
| 1777416109 | 13.89° C | 37% | 1020.1 hPa | - | - | - | - |
| 1777415209 | 13.89° C | 34% | 1019.6 hPa | - | - | - | - |
| 1777414309 | 15° C | 33% | 1019.5 hPa | - | - | - | - |
| 1777413409 | 15° C | 34% | 1019.5 hPa | - | - | - | - |
| 1777412509 | 15° C | 34% | 1019.5 hPa | - | - | - | - |
| 1777411631 | 15.56° C | 34% | 1019.3 hPa | - | - | - | - |
| 1777411609 | 15.56° C | 34% | 1019.3 hPa | - | - | - | - |
| 1777410709 | 15.56° C | 33% | 1019.2 hPa | - | - | - | - |
| 1777409809 | 15.56° C | 33% | 1019.1 hPa | - | - | - | - |
| 1777408909 | 15.56° C | 33% | 1019.2 hPa | - | - | - | - |
| 1777408008 | 16.11° C | 32% | 1019 hPa | - | - | - | - |
| 1777407108 | 16.67° C | 31% | 1018.8 hPa | - | - | - | - |
| 1777406208 | 16.67° C | 32% | 1018.9 hPa | - | - | - | - |
| 1777405306 | 16.67° C | 29% | 1018.4 hPa | - | - | - | - |
| 1777404405 | 17.22° C | 29% | 1018.3 hPa | - | - | - | - |
| 1777403505 | 17.22° C | 30% | 1018.2 hPa | - | - | - | - |
| 1777402605 | 17.78° C | 27% | 1017.5 hPa | - | - | - | - |
| 1777401705 | 17.78° C | 28% | 1017.6 hPa | - | - | - | - |
| 1777400805 | 18.33° C | 28% | 1017.6 hPa | - | - | - | - |
* Rain since midnight (hover to see other rain measurements)
** Current wind speed in m/s (hover to see current wind gust speed)